createdAt,value
2023-05-01T00:00:28.332Z,1010.92
2023-05-01T00:01:28.299Z,1010.85
2023-05-01T00:02:28.300Z,1010.85
2023-05-01T00:03:28.421Z,1010.89
2023-05-01T00:04:28.270Z,1010.85
2023-05-01T00:05:28.274Z,1010.84
2023-05-01T00:06:28.307Z,1010.82
2023-05-01T00:07:28.229Z,1010.84
2023-05-01T00:08:28.215Z,1010.75
2023-05-01T00:09:28.205Z,1010.73
2023-05-01T00:10:28.212Z,1010.74
2023-05-01T00:11:28.180Z,1010.75
2023-05-01T00:12:28.174Z,1010.74
2023-05-01T00:13:28.158Z,1010.70
2023-05-01T00:14:28.140Z,1010.75
2023-05-01T00:15:28.163Z,1010.69
2023-05-01T00:16:28.180Z,1010.67
2023-05-01T00:17:28.202Z,1010.66
2023-05-01T00:18:28.096Z,1010.66
2023-05-01T00:19:28.180Z,1010.66
2023-05-01T00:20:28.115Z,1010.63
2023-05-01T00:21:28.071Z,1010.64
2023-05-01T00:22:28.058Z,1010.58
2023-05-01T00:23:28.050Z,1010.61
2023-05-01T00:24:28.150Z,1010.60
2023-05-01T00:25:28.039Z,1010.59
2023-05-01T00:26:28.012Z,1010.59
2023-05-01T00:27:28.001Z,1010.57
2023-05-01T00:28:27.988Z,1010.55
2023-05-01T00:29:27.976Z,1010.51
2023-05-01T00:30:27.989Z,1010.51
2023-05-01T00:31:27.963Z,1010.46
2023-05-01T00:32:27.973Z,1010.45
2023-05-01T00:33:27.962Z,1010.42
2023-05-01T00:34:27.913Z,1010.42
2023-05-01T00:35:27.934Z,1010.41
2023-05-01T00:36:27.890Z,1010.42
2023-05-01T00:37:27.890Z,1010.37
2023-05-01T00:38:27.874Z,1010.43
2023-05-01T00:39:27.868Z,1010.39
2023-05-01T00:40:27.878Z,1010.37
2023-05-01T00:41:27.847Z,1010.34
2023-05-01T00:42:27.833Z,1010.31
2023-05-01T00:43:27.833Z,1010.34
2023-05-01T00:44:27.820Z,1010.31
2023-05-01T00:45:27.821Z,1010.31
2023-05-01T00:46:27.887Z,1010.30
2023-05-01T00:47:27.858Z,1010.27
2023-05-01T00:48:27.758Z,1010.29
2023-05-01T00:49:27.754Z,1010.30
2023-05-01T00:50:27.761Z,1010.30
2023-05-01T00:51:27.733Z,1010.27
2023-05-01T00:52:27.723Z,1010.28
2023-05-01T00:53:27.710Z,1010.27
2023-05-01T00:54:27.694Z,1010.25
2023-05-01T00:55:27.709Z,1010.23
2023-05-01T00:56:27.672Z,1010.20
2023-05-01T00:57:27.670Z,1010.17
2023-05-01T00:58:27.654Z,1010.16
2023-05-01T00:59:27.640Z,1010.14
2023-05-01T01:00:27.647Z,1010.11
2023-05-01T01:01:27.636Z,1010.09
2023-05-01T01:02:27.626Z,1010.10
2023-05-01T01:03:27.594Z,1010.08
2023-05-01T01:04:27.628Z,1010.10
2023-05-01T01:05:27.591Z,1010.06
2023-05-01T01:06:27.613Z,1010.05
2023-05-01T01:07:27.545Z,1010.03
2023-05-01T01:08:27.530Z,1010.00
2023-05-01T01:09:27.532Z,1009.98
2023-05-01T01:10:27.535Z,1009.99
2023-05-01T01:11:27.498Z,1010.01
2023-05-01T01:12:27.483Z,1009.98
2023-05-01T01:13:27.480Z,1009.96
2023-05-01T01:14:27.464Z,1009.93
2023-05-01T01:15:27.473Z,1009.91
2023-05-01T01:16:27.455Z,1009.89
2023-05-01T01:17:27.465Z,1009.88
2023-05-01T01:18:27.419Z,1009.86
2023-05-01T01:19:27.409Z,1009.86
2023-05-01T01:20:27.420Z,1009.83
2023-05-01T01:21:27.386Z,1009.84
2023-05-01T01:22:27.377Z,1009.84
2023-05-01T01:23:27.368Z,1009.83
2023-05-01T01:24:27.350Z,1009.83
2023-05-01T01:25:27.363Z,1009.79
2023-05-01T01:26:27.326Z,1009.79
2023-05-01T01:27:27.317Z,1009.78
2023-05-01T01:28:27.298Z,1009.76
2023-05-01T01:29:27.298Z,1009.79
2023-05-01T01:30:27.303Z,1009.77
2023-05-01T01:31:27.312Z,1009.74
2023-05-01T01:32:27.281Z,1009.74
2023-05-01T01:33:27.252Z,1009.72
2023-05-01T01:34:27.249Z,1009.73
2023-05-01T01:35:27.254Z,1009.68
2023-05-01T01:36:27.218Z,1009.63
2023-05-01T01:37:27.199Z,1009.64
2023-05-01T01:38:27.192Z,1009.59
2023-05-01T01:39:27.190Z,1009.61
2023-05-01T01:40:27.277Z,1009.59
2023-05-01T01:41:27.159Z,1009.61
2023-05-01T01:42:27.174Z,1009.54
2023-05-01T01:43:27.140Z,1009.53
2023-05-01T01:44:27.128Z,1009.53
2023-05-01T01:45:27.135Z,1009.56
2023-05-01T01:46:27.145Z,1009.53
2023-05-01T01:47:27.123Z,1009.51
2023-05-01T01:48:27.082Z,1009.50
2023-05-01T01:49:27.075Z,1009.51
2023-05-01T01:50:27.095Z,1009.49
2023-05-01T01:51:27.051Z,1009.47
2023-05-01T01:52:27.038Z,1009.44
2023-05-01T01:53:27.032Z,1009.42
2023-05-01T01:54:27.020Z,1009.40
2023-05-01T01:55:27.028Z,1009.44
2023-05-01T01:56:26.995Z,1009.44
2023-05-01T01:57:26.975Z,1009.39
2023-05-01T01:58:26.984Z,1009.36
2023-05-01T01:59:26.958Z,1009.37
2023-05-01T02:00:26.969Z,1009.39
2023-05-01T02:01:26.957Z,1009.34
2023-05-01T02:02:27.130Z,1009.32
2023-05-01T02:03:27.026Z,1009.32
2023-05-01T02:04:26.918Z,1009.36
2023-05-01T02:05:26.925Z,1009.29
2023-05-01T02:06:26.938Z,1009.32
2023-05-01T02:07:26.862Z,1009.31
2023-05-01T02:08:26.869Z,1009.29
2023-05-01T02:09:26.840Z,1009.26
2023-05-01T02:10:26.864Z,1009.26
2023-05-01T02:11:26.823Z,1009.24
2023-05-01T02:12:26.859Z,1009.23
2023-05-01T02:13:26.803Z,1009.26
2023-05-01T02:14:26.808Z,1009.25
2023-05-01T02:15:26.814Z,1009.20
2023-05-01T02:16:26.793Z,1009.26
2023-05-01T02:17:26.808Z,1009.26
2023-05-01T02:18:26.743Z,1009.25
2023-05-01T02:19:26.731Z,1009.25
2023-05-01T02:20:26.739Z,1009.24
2023-05-01T02:21:26.704Z,1009.19
2023-05-01T02:22:26.695Z,1009.23
2023-05-01T02:23:26.704Z,1009.21
2023-05-01T02:24:26.679Z,1009.21
2023-05-01T02:25:29.098Z,1009.18
2023-05-01T02:26:26.656Z,1009.20
2023-05-01T02:27:26.654Z,1009.20
2023-05-01T02:28:26.665Z,1009.20
2023-05-01T02:29:26.624Z,1009.21
2023-05-01T02:30:26.640Z,1009.15
2023-05-01T02:31:26.607Z,1009.15
2023-05-01T02:32:26.656Z,1009.17
2023-05-01T02:33:26.565Z,1009.12
2023-05-01T02:34:26.562Z,1009.12
2023-05-01T02:35:26.572Z,1009.07
2023-05-01T02:36:26.540Z,1009.05
2023-05-01T02:37:26.527Z,1009.06
2023-05-01T02:38:26.517Z,1009.04
2023-05-01T02:39:26.506Z,1009.08
2023-05-01T02:40:26.523Z,1009.07
2023-05-01T02:41:26.480Z,1009.03
2023-05-01T02:42:26.473Z,1009.04
2023-05-01T02:43:26.463Z,1009.00
2023-05-01T02:44:26.454Z,1008.97
2023-05-01T02:45:26.475Z,1008.98
2023-05-01T02:46:26.509Z,1008.91
2023-05-01T02:47:26.515Z,1008.92
2023-05-01T02:48:26.396Z,1008.90
2023-05-01T02:49:26.388Z,1008.92
2023-05-01T02:50:26.403Z,1008.84
2023-05-01T02:51:26.362Z,1008.84
2023-05-01T02:52:26.365Z,1008.86
2023-05-01T02:53:26.339Z,1008.84
2023-05-01T02:54:26.333Z,1008.81
2023-05-01T02:55:26.339Z,1008.80
2023-05-01T02:56:26.323Z,1008.79
2023-05-01T02:57:26.294Z,1008.77
2023-05-01T02:58:26.291Z,1008.77
2023-05-01T02:59:26.278Z,1008.80
2023-05-01T03:00:26.288Z,1008.77
2023-05-01T03:01:26.308Z,1008.75
2023-05-01T03:02:26.243Z,1008.77
2023-05-01T03:03:26.227Z,1008.74
2023-05-01T03:04:26.233Z,1008.75
2023-05-01T03:05:26.224Z,1008.73
2023-05-01T03:06:26.241Z,1008.78
2023-05-01T03:07:26.186Z,1008.75
2023-05-01T03:08:26.175Z,1008.71
2023-05-01T03:09:26.168Z,1008.71
2023-05-01T03:10:26.199Z,1008.73
2023-05-01T03:11:26.147Z,1008.63
2023-05-01T03:12:26.136Z,1008.65
2023-05-01T03:13:26.112Z,1008.65
2023-05-01T03:14:26.107Z,1008.67
2023-05-01T03:15:26.112Z,1008.65
2023-05-01T03:16:26.132Z,1008.65
2023-05-01T03:17:26.137Z,1008.63
2023-05-01T03:18:26.066Z,1008.58
2023-05-01T03:19:26.050Z,1008.55
2023-05-01T03:20:27.521Z,1008.59
2023-05-01T03:21:26.024Z,1008.54
2023-05-01T03:22:26.022Z,1008.54
2023-05-01T03:23:26.001Z,1008.56
2023-05-01T03:24:25.987Z,1008.53
2023-05-01T03:25:25.973Z,1008.51
2023-05-01T03:26:25.993Z,1008.48
2023-05-01T03:27:25.957Z,1008.49
2023-05-01T03:28:25.954Z,1008.48
2023-05-01T03:29:25.931Z,1008.48
2023-05-01T03:30:25.928Z,1008.49
2023-05-01T03:31:25.956Z,1008.43
2023-05-01T03:32:26.163Z,1008.45
2023-05-01T03:33:26.028Z,1008.45
2023-05-01T03:34:25.874Z,1008.38
2023-05-01T03:35:25.910Z,1008.45
2023-05-01T03:36:25.866Z,1008.42
2023-05-01T03:37:25.854Z,1008.41
2023-05-01T03:38:25.827Z,1008.43
2023-05-01T03:39:25.822Z,1008.41
2023-05-01T03:40:25.826Z,1008.39
2023-05-01T03:41:25.811Z,1008.38
2023-05-01T03:42:25.785Z,1008.40
2023-05-01T03:43:25.872Z,1008.36
2023-05-01T03:44:25.773Z,1008.33
2023-05-01T03:45:25.748Z,1008.33
2023-05-01T03:46:25.799Z,1008.35
2023-05-01T03:47:25.755Z,1008.31
2023-05-01T03:48:25.730Z,1008.33
2023-05-01T03:49:25.696Z,1008.29
2023-05-01T03:50:25.701Z,1008.30
2023-05-01T03:51:25.723Z,1008.29
2023-05-01T03:52:25.671Z,1008.24
2023-05-01T03:53:25.657Z,1008.25
2023-05-01T03:54:25.653Z,1008.24
2023-05-01T03:55:25.632Z,1008.24
2023-05-01T03:56:25.648Z,1008.22
2023-05-01T03:57:25.631Z,1008.17
2023-05-01T03:58:25.614Z,1008.18
2023-05-01T03:59:25.600Z,1008.18
2023-05-01T04:00:25.580Z,1008.23
2023-05-01T04:01:25.592Z,1008.21
2023-05-01T04:02:25.655Z,1008.19
2023-05-01T04:03:25.613Z,1008.21
2023-05-01T04:04:25.628Z,1008.20
2023-05-01T04:05:25.530Z,1008.18
2023-05-01T04:06:25.570Z,1008.17
2023-05-01T04:07:25.499Z,1008.20
2023-05-01T04:08:25.494Z,1008.16
2023-05-01T04:09:25.476Z,1008.19
2023-05-01T04:10:25.471Z,1008.16
2023-05-01T04:11:25.486Z,1008.17
2023-05-01T04:12:25.446Z,1008.15
2023-05-01T04:13:25.430Z,1008.16
2023-05-01T04:14:25.430Z,1008.16
2023-05-01T04:15:25.409Z,1008.10
2023-05-01T04:16:25.435Z,1008.15
2023-05-01T04:17:25.402Z,1008.14
2023-05-01T04:18:25.380Z,1008.17
2023-05-01T04:19:25.368Z,1008.19
2023-05-01T04:20:25.356Z,1008.13
2023-05-01T04:21:25.353Z,1008.11
2023-05-01T04:22:25.362Z,1008.15
2023-05-01T04:23:25.325Z,1008.11
2023-05-01T04:24:25.318Z,1008.11
2023-05-01T04:25:25.298Z,1008.14
2023-05-01T04:26:25.285Z,1008.12
2023-05-01T04:27:25.309Z,1008.12
2023-05-01T04:28:25.265Z,1008.13
2023-05-01T04:29:25.254Z,1008.11
2023-05-01T04:30:25.238Z,1008.12
2023-05-01T04:31:25.262Z,1008.08
2023-05-01T04:32:25.250Z,1008.13
2023-05-01T04:33:25.227Z,1008.10
2023-05-01T04:34:25.200Z,1008.12
2023-05-01T04:35:25.178Z,1008.14
2023-05-01T04:36:25.180Z,1008.09
2023-05-01T04:37:25.155Z,1008.11
2023-05-01T04:38:25.148Z,1008.12
2023-05-01T04:39:25.173Z,1008.07
2023-05-01T04:40:25.127Z,1008.04
2023-05-01T04:41:25.111Z,1008.06
2023-05-01T04:42:25.108Z,1008.08
2023-05-01T04:43:25.083Z,1008.08
2023-05-01T04:44:25.111Z,1008.05
2023-05-01T04:45:25.066Z,1008.07
2023-05-01T04:46:25.086Z,1008.10
2023-05-01T04:47:25.050Z,1008.02
2023-05-01T04:48:25.038Z,1008.08
2023-05-01T04:49:25.044Z,1008.05
2023-05-01T04:50:25.026Z,1008.06
2023-05-01T04:51:25.004Z,1008.05
2023-05-01T04:52:24.993Z,1008.08
2023-05-01T04:53:24.983Z,1008.05
2023-05-01T04:54:25.014Z,1008.06
2023-05-01T04:55:24.960Z,1008.07
2023-05-01T04:56:24.937Z,1008.08
2023-05-01T04:57:24.936Z,1008.06
2023-05-01T04:58:24.929Z,1008.04
2023-05-01T04:59:24.910Z,1008.09
2023-05-01T05:00:25.269Z,1008.07
2023-05-01T05:01:24.902Z,1008.06
2023-05-01T05:02:25.015Z,1008.09
2023-05-01T05:03:24.950Z,1008.05
2023-05-01T05:04:24.861Z,1008.05
2023-05-01T05:05:24.845Z,1008.04
2023-05-01T05:06:24.884Z,1008.01
2023-05-01T05:07:24.819Z,1007.97
2023-05-01T05:08:24.815Z,1007.99
2023-05-01T05:09:24.790Z,1007.99
2023-05-01T05:10:24.787Z,1007.98
2023-05-01T05:11:24.808Z,1007.95
2023-05-01T05:12:24.767Z,1008.00
2023-05-01T05:13:24.754Z,1008.01
2023-05-01T05:14:24.756Z,1008.00
2023-05-01T05:15:24.724Z,1008.04
2023-05-01T05:16:24.763Z,1008.02
2023-05-01T05:17:24.788Z,1007.98
2023-05-01T05:18:24.737Z,1007.99
2023-05-01T05:19:24.679Z,1007.98
2023-05-01T05:20:24.690Z,1007.99
2023-05-01T05:21:24.657Z,1008.00
2023-05-01T05:22:24.654Z,1007.97
2023-05-01T05:23:24.686Z,1007.99
2023-05-01T05:24:24.640Z,1007.99
2023-05-01T05:25:24.635Z,1007.99
2023-05-01T05:26:24.605Z,1007.96
2023-05-01T05:27:24.595Z,1007.98
2023-05-01T05:28:24.591Z,1007.95
2023-05-01T05:29:24.629Z,1007.97
2023-05-01T05:30:24.566Z,1007.98
2023-05-01T05:31:24.562Z,1007.95
2023-05-01T05:32:24.650Z,1008.01
2023-05-01T05:33:24.528Z,1007.94
2023-05-01T05:34:24.549Z,1007.99
2023-05-01T05:35:24.520Z,1008.02
2023-05-01T05:36:24.491Z,1008.02
2023-05-01T05:37:24.480Z,1008.01
2023-05-01T05:38:24.469Z,1008.01
2023-05-01T05:39:24.450Z,1007.98
2023-05-01T05:40:24.507Z,1008.00
2023-05-01T05:41:24.438Z,1008.00
2023-05-01T05:42:24.423Z,1007.98
2023-05-01T05:43:26.654Z,1007.99
2023-05-01T05:44:24.397Z,1008.01
2023-05-01T05:45:24.410Z,1007.98
2023-05-01T05:46:24.424Z,1007.97
2023-05-01T05:47:24.450Z,1007.97
2023-05-01T05:48:24.406Z,1007.99
2023-05-01T05:49:24.340Z,1007.95
2023-05-01T05:50:24.339Z,1007.94
2023-05-01T05:51:24.344Z,1007.93
2023-05-01T05:52:24.306Z,1007.92
2023-05-01T05:53:25.865Z,1007.94
2023-05-01T05:54:24.307Z,1007.90
2023-05-01T05:55:24.280Z,1007.90
2023-05-01T05:56:24.264Z,1007.96
2023-05-01T05:57:24.298Z,1007.92
2023-05-01T05:58:24.238Z,1007.92
2023-05-01T05:59:24.229Z,1007.94
2023-05-01T06:00:24.228Z,1007.97
2023-05-01T06:01:24.216Z,1007.90
2023-05-01T06:02:24.259Z,1007.92
2023-05-01T06:03:24.689Z,1007.90
2023-05-01T06:04:24.227Z,1007.93
2023-05-01T06:05:24.244Z,1007.93
2023-05-01T06:06:24.197Z,1007.87
2023-05-01T06:07:24.156Z,1007.85
2023-05-01T06:08:24.152Z,1007.85
2023-05-01T06:09:24.184Z,1007.86
2023-05-01T06:10:24.135Z,1007.85
2023-05-01T06:11:24.131Z,1007.87
2023-05-01T06:12:24.084Z,1007.88
2023-05-01T06:13:24.114Z,1007.88
2023-05-01T06:14:24.119Z,1007.83
2023-05-01T06:15:24.157Z,1007.84
2023-05-01T06:16:24.093Z,1007.84
2023-05-01T06:17:24.071Z,1007.85
2023-05-01T06:18:24.032Z,1007.85
2023-05-01T06:19:24.052Z,1007.82
2023-05-01T06:20:24.047Z,1007.82
2023-05-01T06:21:23.997Z,1007.82
2023-05-01T06:22:24.001Z,1007.77
2023-05-01T06:23:23.969Z,1007.78
2023-05-01T06:24:23.962Z,1007.82
2023-05-01T06:25:23.954Z,1007.80
2023-05-01T06:26:23.993Z,1007.81
2023-05-01T06:27:23.930Z,1007.78
2023-05-01T06:28:23.968Z,1007.77
2023-05-01T06:29:23.921Z,1007.73
2023-05-01T06:30:23.898Z,1007.73
2023-05-01T06:31:23.951Z,1007.72
2023-05-01T06:32:23.945Z,1007.74
2023-05-01T06:33:23.872Z,1007.74
2023-05-01T06:34:23.845Z,1007.76
2023-05-01T06:35:23.875Z,1007.79
2023-05-01T06:36:23.857Z,1007.75
2023-05-01T06:37:23.812Z,1007.73
2023-05-01T06:38:26.292Z,1007.73
2023-05-01T06:39:23.828Z,1007.76
2023-05-01T06:40:23.806Z,1007.71
2023-05-01T06:41:23.799Z,1007.73
2023-05-01T06:42:23.788Z,1007.75
2023-05-01T06:43:23.761Z,1007.73
2023-05-01T06:44:23.771Z,1007.74
2023-05-01T06:45:23.748Z,1007.73
2023-05-01T06:46:23.792Z,1007.72
2023-05-01T06:47:23.755Z,1007.75
2023-05-01T06:48:23.693Z,1007.75
2023-05-01T06:49:23.676Z,1007.79
2023-05-01T06:50:23.734Z,1007.81
2023-05-01T06:51:23.644Z,1007.84
2023-05-01T06:52:23.679Z,1007.80
2023-05-01T06:53:23.638Z,1007.83
2023-05-01T06:54:23.691Z,1007.80
2023-05-01T06:55:23.605Z,1007.76
2023-05-01T06:56:23.697Z,1007.78
2023-05-01T06:57:23.630Z,1007.78
2023-05-01T06:58:24.573Z,1007.81
2023-05-01T06:59:23.554Z,1007.81
2023-05-01T07:00:23.597Z,1007.82
2023-05-01T07:01:23.639Z,1007.76
2023-05-01T07:02:23.656Z,1007.75
2023-05-01T07:03:23.586Z,1007.77
2023-05-01T07:04:23.502Z,1007.80
2023-05-01T07:05:23.517Z,1007.77
2023-05-01T07:06:23.567Z,1007.75
2023-05-01T07:07:23.566Z,1007.76
2023-05-01T07:08:23.955Z,1007.76
2023-05-01T07:09:23.465Z,1007.75
2023-05-01T07:10:23.442Z,1007.71
2023-05-01T07:11:23.455Z,1007.71
2023-05-01T07:12:23.441Z,1007.70
2023-05-01T07:13:23.419Z,1007.68
2023-05-01T07:14:23.454Z,1007.66
2023-05-01T07:15:23.421Z,1007.73
2023-05-01T07:16:23.372Z,1007.70
2023-05-01T07:17:23.375Z,1007.73
2023-05-01T07:18:23.374Z,1007.71
2023-05-01T07:19:23.337Z,1007.72
2023-05-01T07:20:23.344Z,1007.73
2023-05-01T07:21:23.349Z,1007.71
2023-05-01T07:22:23.339Z,1007.72
2023-05-01T07:23:23.281Z,1007.72
2023-05-01T07:24:23.290Z,1007.71
2023-05-01T07:25:23.297Z,1007.75
2023-05-01T07:26:23.280Z,1007.76
2023-05-01T07:27:23.245Z,1007.70
2023-05-01T07:28:23.253Z,1007.71
2023-05-01T07:29:23.302Z,1007.68
2023-05-01T07:30:24.847Z,1007.68
2023-05-01T07:31:23.238Z,1007.65
2023-05-01T07:32:23.279Z,1007.68
2023-05-01T07:33:23.208Z,1007.70
2023-05-01T07:34:23.204Z,1007.68
2023-05-01T07:35:23.167Z,1007.68
2023-05-01T07:36:23.135Z,1007.66
2023-05-01T07:37:23.145Z,1007.67
2023-05-01T07:38:23.344Z,1007.71
2023-05-01T07:39:23.137Z,1007.67
2023-05-01T07:40:23.110Z,1007.71
2023-05-01T07:41:23.083Z,1007.69
2023-05-01T07:42:23.098Z,1007.60
2023-05-01T07:43:23.072Z,1007.64
2023-05-01T07:44:23.094Z,1007.65
2023-05-01T07:45:23.105Z,1007.69
2023-05-01T07:46:23.059Z,1007.61
2023-05-01T07:47:23.058Z,1007.67
2023-05-01T07:48:23.057Z,1007.66
2023-05-01T07:49:22.998Z,1007.68
2023-05-01T07:50:23.028Z,1007.66
2023-05-01T07:51:23.012Z,1007.71
2023-05-01T07:52:22.948Z,1007.70
2023-05-01T07:53:22.987Z,1007.63
2023-05-01T07:54:22.996Z,1007.66
2023-05-01T07:55:22.957Z,1007.65
2023-05-01T07:56:22.919Z,1007.65
2023-05-01T07:57:22.996Z,1007.61
2023-05-01T07:58:22.875Z,1007.60
2023-05-01T07:59:22.929Z,1007.57
2023-05-01T08:00:22.902Z,1007.56
2023-05-01T08:01:22.870Z,1007.54
2023-05-01T08:02:23.029Z,1007.56
2023-05-01T08:03:22.965Z,1007.58
2023-05-01T08:04:22.963Z,1007.56
2023-05-01T08:05:22.824Z,1007.55
2023-05-01T08:06:22.836Z,1007.50
2023-05-01T08:07:22.801Z,1007.51
2023-05-01T08:08:22.761Z,1007.53
2023-05-01T08:09:22.787Z,1007.53
2023-05-01T08:10:22.781Z,1007.54
2023-05-01T08:11:22.852Z,1007.57
2023-05-01T08:12:22.724Z,1007.56
2023-05-01T08:13:22.742Z,1007.57
2023-05-01T08:14:22.724Z,1007.56
2023-05-01T08:15:22.723Z,1007.54
2023-05-01T08:16:22.789Z,1007.56
2023-05-01T08:17:22.770Z,1007.57
2023-05-01T08:18:22.683Z,1007.55
2023-05-01T08:19:22.735Z,1007.54
2023-05-01T08:20:22.705Z,1007.56
2023-05-01T08:21:22.638Z,1007.56
2023-05-01T08:22:22.669Z,1007.56
2023-05-01T08:23:22.703Z,1007.53
2023-05-01T08:24:22.832Z,1007.53
2023-05-01T08:25:22.628Z,1007.48
2023-05-01T08:26:22.903Z,1007.49
2023-05-01T08:27:22.586Z,1007.47
2023-05-01T08:28:22.592Z,1007.47
2023-05-01T08:29:22.585Z,1007.48
2023-05-01T08:30:22.581Z,1007.47
2023-05-01T08:31:22.564Z,1007.47
2023-05-01T08:32:22.700Z,1007.43
2023-05-01T08:33:22.520Z,1007.43
2023-05-01T08:34:22.502Z,1007.42
2023-05-01T08:35:22.513Z,1007.40
2023-05-01T08:36:22.526Z,1007.39
2023-05-01T08:37:22.461Z,1007.41
2023-05-01T08:38:22.432Z,1007.39
2023-05-01T08:39:22.444Z,1007.36
2023-05-01T08:40:22.461Z,1007.41
2023-05-01T08:41:22.452Z,1007.39
2023-05-01T08:42:22.423Z,1007.35
2023-05-01T08:43:22.394Z,1007.36
2023-05-01T08:44:22.372Z,1007.34
2023-05-01T08:45:22.359Z,1007.39
2023-05-01T08:46:22.417Z,1007.36
2023-05-01T08:47:22.387Z,1007.36
2023-05-01T08:48:22.315Z,1007.33
2023-05-01T08:49:22.374Z,1007.39
2023-05-01T08:50:22.317Z,1007.36
2023-05-01T08:51:22.338Z,1007.36
2023-05-01T08:52:22.341Z,1007.33
2023-05-01T08:53:22.293Z,1007.30
2023-05-01T08:54:22.291Z,1007.36
2023-05-01T08:55:22.275Z,1007.33
2023-05-01T08:56:22.254Z,1007.32
2023-05-01T08:57:22.245Z,1007.31
2023-05-01T08:58:22.194Z,1007.27
2023-05-01T08:59:22.213Z,1007.26
2023-05-01T09:00:22.296Z,1007.28
2023-05-01T09:01:22.312Z,1007.30
2023-05-01T09:02:22.307Z,1007.28
2023-05-01T09:03:22.225Z,1007.33
2023-05-01T09:04:22.228Z,1007.35
2023-05-01T09:05:22.134Z,1007.31
2023-05-01T09:06:22.183Z,1007.25
2023-05-01T09:07:22.184Z,1007.28
2023-05-01T09:08:22.130Z,1007.28
2023-05-01T09:09:22.096Z,1007.29
2023-05-01T09:10:22.090Z,1007.26
2023-05-01T09:11:22.104Z,1007.29
2023-05-01T09:12:22.092Z,1007.24
2023-05-01T09:13:22.030Z,1007.24
2023-05-01T09:14:22.072Z,1007.24
2023-05-01T09:15:22.025Z,1007.27
2023-05-01T09:16:22.489Z,1007.24
2023-05-01T09:17:22.064Z,1007.25
2023-05-01T09:18:22.001Z,1007.26
2023-05-01T09:19:22.006Z,1007.23
2023-05-01T09:20:21.958Z,1007.22
2023-05-01T09:21:21.955Z,1007.26
2023-05-01T09:22:21.936Z,1007.26
2023-05-01T09:23:21.911Z,1007.24
2023-05-01T09:24:21.893Z,1007.27
2023-05-01T09:25:21.893Z,1007.21
2023-05-01T09:26:21.907Z,1007.16
2023-05-01T09:27:21.859Z,1007.19
2023-05-01T09:28:21.961Z,1007.25
2023-05-01T09:29:21.848Z,1007.21
2023-05-01T09:30:21.836Z,1007.20
2023-05-01T09:31:23.125Z,1007.21
2023-05-01T09:32:22.106Z,1007.18
2023-05-01T09:33:21.856Z,1007.19
2023-05-01T09:34:21.797Z,1007.17
2023-05-01T09:35:21.766Z,1007.15
2023-05-01T09:36:21.766Z,1007.16
2023-05-01T09:37:21.821Z,1007.14
2023-05-01T09:38:21.757Z,1007.15
2023-05-01T09:39:21.753Z,1007.16
2023-05-01T09:40:21.718Z,1007.14
2023-05-01T09:41:21.702Z,1007.11
2023-05-01T09:42:21.688Z,1007.12
2023-05-01T09:43:21.681Z,1007.10
2023-05-01T09:44:21.667Z,1007.06
2023-05-01T09:45:21.698Z,1007.10
2023-05-01T09:46:21.680Z,1007.07
2023-05-01T09:47:21.765Z,1007.08
2023-05-01T09:48:21.615Z,1007.08
2023-05-01T09:49:21.612Z,1007.10
2023-05-01T09:50:21.604Z,1007.11
2023-05-01T09:51:21.645Z,1007.09
2023-05-01T09:52:21.568Z,1006.98
2023-05-01T09:53:21.566Z,1006.98
2023-05-01T09:54:21.551Z,1006.93
2023-05-01T09:55:22.237Z,1006.98
2023-05-01T09:56:21.590Z,1006.98
2023-05-01T09:57:21.547Z,1006.95
2023-05-01T09:58:21.507Z,1006.96
2023-05-01T09:59:21.494Z,1006.98
2023-05-01T10:00:21.481Z,1006.96
2023-05-01T10:01:21.528Z,1006.95
2023-05-01T10:02:21.520Z,1006.92
2023-05-01T10:03:21.534Z,1006.91
2023-05-01T10:04:21.445Z,1006.95
2023-05-01T10:05:21.429Z,1006.93
2023-05-01T10:06:21.500Z,1006.89
2023-05-01T10:07:21.408Z,1006.89
2023-05-01T10:08:21.395Z,1006.93
2023-05-01T10:09:21.418Z,1006.91
2023-05-01T10:10:21.402Z,1006.87
2023-05-01T10:11:21.366Z,1006.82
2023-05-01T10:12:21.356Z,1006.82
2023-05-01T10:13:21.353Z,1006.88
2023-05-01T10:14:21.326Z,1006.79
2023-05-01T10:15:26.179Z,1006.75
2023-05-01T10:16:21.310Z,1006.77
2023-05-01T10:17:21.429Z,1006.78
2023-05-01T10:18:21.347Z,1006.78
2023-05-01T10:19:21.313Z,1006.80
2023-05-01T10:20:21.281Z,1006.81
2023-05-01T10:21:21.251Z,1006.81
2023-05-01T10:22:21.239Z,1006.83
2023-05-01T10:23:21.229Z,1006.82
2023-05-01T10:24:21.217Z,1006.81
2023-05-01T10:25:21.230Z,1006.85
2023-05-01T10:26:21.190Z,1006.84
2023-05-01T10:27:21.199Z,1006.86
2023-05-01T10:28:21.161Z,1006.84
2023-05-01T10:29:21.161Z,1006.86
2023-05-01T10:30:21.163Z,1006.87
2023-05-01T10:31:21.267Z,1006.88
2023-05-01T10:32:21.118Z,1006.90
2023-05-01T10:33:21.142Z,1006.92
2023-05-01T10:34:21.102Z,1006.87
2023-05-01T10:35:21.081Z,1006.86
2023-05-01T10:36:21.100Z,1006.91
2023-05-01T10:37:21.079Z,1006.93
2023-05-01T10:38:21.052Z,1006.88
2023-05-01T10:39:21.039Z,1006.88
2023-05-01T10:40:21.029Z,1006.86
2023-05-01T10:41:21.035Z,1006.86
2023-05-01T10:42:21.037Z,1006.80
2023-05-01T10:43:21.015Z,1006.80
2023-05-01T10:44:20.989Z,1006.80
2023-05-01T10:45:20.968Z,1006.80
2023-05-01T10:46:21.146Z,1006.79
2023-05-01T10:47:20.977Z,1006.80
2023-05-01T10:48:20.961Z,1006.81
2023-05-01T10:49:20.923Z,1006.80
2023-05-01T10:50:20.920Z,1006.82
2023-05-01T10:51:20.919Z,1006.80
2023-05-01T10:52:20.892Z,1006.79
2023-05-01T10:53:20.879Z,1006.75
2023-05-01T10:54:20.871Z,1006.77
2023-05-01T10:55:20.864Z,1006.68
2023-05-01T10:56:20.867Z,1006.73
2023-05-01T10:57:20.832Z,1006.65
2023-05-01T10:58:20.830Z,1006.65
2023-05-01T10:59:20.809Z,1006.67
2023-05-01T11:00:20.802Z,1006.65
2023-05-01T11:01:20.838Z,1006.65
2023-05-01T11:02:20.843Z,1006.63
2023-05-01T11:03:20.775Z,1006.63
2023-05-01T11:04:20.758Z,1006.61
2023-05-01T11:05:32.089Z,1006.62
2023-05-01T11:06:20.838Z,1006.61
2023-05-01T11:07:20.844Z,1006.58
2023-05-01T11:08:20.718Z,1006.63
2023-05-01T11:09:20.702Z,1006.61
2023-05-01T11:10:20.701Z,1006.55
2023-05-01T11:11:20.698Z,1006.57
2023-05-01T11:12:20.670Z,1006.57
2023-05-01T11:13:20.656Z,1006.57
2023-05-01T11:14:20.648Z,1006.56
2023-05-01T11:15:20.633Z,1006.51
2023-05-01T11:16:20.700Z,1006.51
2023-05-01T11:17:20.616Z,1006.52
2023-05-01T11:18:20.605Z,1006.48
2023-05-01T11:19:20.589Z,1006.47
2023-05-01T11:20:20.583Z,1006.51
2023-05-01T11:21:20.590Z,1006.47
2023-05-01T11:22:20.560Z,1006.49
2023-05-01T11:23:20.550Z,1006.49
2023-05-01T11:24:20.543Z,1006.47
2023-05-01T11:25:20.577Z,1006.41
2023-05-01T11:26:20.542Z,1006.44
2023-05-01T11:27:20.491Z,1006.42
2023-05-01T11:28:20.492Z,1006.44
2023-05-01T11:29:20.500Z,1006.43
2023-05-01T11:30:20.497Z,1006.46
2023-05-01T11:31:20.495Z,1006.44
2023-05-01T11:32:20.618Z,1006.44
2023-05-01T11:33:20.470Z,1006.42
2023-05-01T11:34:20.424Z,1006.43
2023-05-01T11:35:20.402Z,1006.45
2023-05-01T11:36:20.422Z,1006.43
2023-05-01T11:37:20.389Z,1006.40
2023-05-01T11:38:20.387Z,1006.40
2023-05-01T11:39:20.408Z,1006.41
2023-05-01T11:40:20.361Z,1006.39
2023-05-01T11:41:20.408Z,1006.40
2023-05-01T11:42:20.374Z,1006.43
2023-05-01T11:43:20.317Z,1006.40
2023-05-01T11:44:20.322Z,1006.41
2023-05-01T11:45:20.298Z,1006.42
2023-05-01T11:46:20.344Z,1006.38
2023-05-01T11:47:20.301Z,1006.34
2023-05-01T11:48:20.293Z,1006.38
2023-05-01T11:49:20.253Z,1006.35
2023-05-01T11:50:20.246Z,1006.35
2023-05-01T11:51:20.254Z,1006.33
2023-05-01T11:52:20.219Z,1006.34
2023-05-01T11:53:20.202Z,1006.31
2023-05-01T11:54:20.202Z,1006.33
2023-05-01T11:55:20.177Z,1006.28
2023-05-01T11:56:26.657Z,1006.28
2023-05-01T11:57:20.218Z,1006.31
2023-05-01T11:58:20.158Z,1006.33
2023-05-01T11:59:20.155Z,1006.32
2023-05-01T12:00:20.138Z,1006.25
2023-05-01T12:01:20.156Z,1006.28
2023-05-01T12:02:20.134Z,1006.29
2023-05-01T12:03:20.283Z,1006.28
2023-05-01T12:04:20.167Z,1006.29
2023-05-01T12:05:20.082Z,1006.28